createdAt,value
2022-07-30T00:01:48.113Z,24.10
2022-07-30T00:04:17.556Z,24.00
2022-07-30T00:06:46.977Z,23.92
2022-07-30T00:09:16.437Z,23.89
2022-07-30T00:11:45.880Z,23.86
2022-07-30T00:14:15.312Z,23.79
2022-07-30T00:16:44.869Z,23.79
2022-07-30T00:19:16.966Z,23.78
2022-07-30T00:21:47.952Z,23.58
2022-07-30T00:24:17.407Z,23.18
2022-07-30T00:26:46.832Z,22.92
2022-07-30T00:29:16.294Z,23.00
2022-07-30T00:31:45.757Z,23.15
2022-07-30T00:34:17.784Z,23.18
2022-07-30T00:36:47.211Z,23.17
2022-07-30T00:39:16.685Z,23.18
2022-07-30T00:41:59.329Z,23.09
2022-07-30T00:44:28.979Z,23.05
2022-07-30T00:46:58.857Z,23.01
2022-07-30T00:49:31.294Z,23.00
2022-07-30T00:52:00.732Z,22.97
2022-07-30T00:54:30.187Z,22.91
2022-07-30T00:56:59.857Z,22.86
2022-07-30T00:59:31.655Z,22.82
2022-07-30T01:02:01.897Z,22.81
2022-07-30T01:04:34.029Z,22.80
2022-07-30T01:07:03.561Z,22.75
2022-07-30T01:09:33.327Z,22.75
2022-07-30T01:12:02.759Z,22.71
2022-07-30T01:14:32.386Z,22.68
2022-07-30T01:17:02.248Z,22.64
2022-07-30T01:19:52.626Z,22.58
2022-07-30T01:22:32.602Z,22.58
2022-07-30T01:25:08.987Z,22.43
2022-07-30T01:27:43.023Z,22.42
2022-07-30T01:30:13.349Z,22.41
2022-07-30T01:32:45.176Z,22.44
2022-07-30T01:35:14.829Z,22.43
2022-07-30T01:37:44.439Z,22.38
2022-07-30T01:40:14.969Z,22.45
2022-07-30T01:42:47.129Z,22.47
2022-07-30T01:45:16.619Z,22.40
2022-07-30T01:47:46.049Z,22.40
2022-07-30T01:50:16.409Z,22.40
2022-07-30T01:52:49.133Z,22.41
2022-07-30T01:55:20.023Z,22.45
2022-07-30T01:57:52.117Z,22.48
2022-07-30T02:00:21.629Z,22.48
2022-07-30T02:02:51.116Z,22.56
2022-07-30T02:05:20.562Z,22.53
2022-07-30T02:07:54.089Z,22.58
2022-07-30T02:10:26.844Z,22.54
2022-07-30T02:13:00.783Z,22.56
2022-07-30T02:15:32.787Z,22.59
2022-07-30T02:18:04.056Z,22.61
2022-07-30T02:20:35.832Z,22.65
2022-07-30T02:23:09.701Z,22.58
2022-07-30T02:25:39.198Z,22.49
2022-07-30T02:28:12.545Z,22.13
2022-07-30T02:30:44.926Z,21.89
2022-07-30T02:33:14.371Z,21.84
2022-07-30T02:35:43.961Z,22.01
2022-07-30T02:38:13.382Z,22.04
2022-07-30T02:40:43.385Z,21.89
2022-07-30T02:43:16.963Z,21.75
2022-07-30T02:45:46.737Z,21.85
2022-07-30T02:48:34.971Z,21.94
2022-07-30T02:51:04.933Z,21.98
2022-07-30T02:53:34.390Z,21.95
2022-07-30T02:56:03.840Z,21.95
2022-07-30T02:58:35.873Z,21.93
2022-07-30T03:01:05.373Z,21.88
2022-07-30T03:03:34.965Z,21.84
2022-07-30T03:06:05.353Z,21.81
2022-07-30T03:08:34.861Z,21.80
2022-07-30T03:11:04.295Z,21.79
2022-07-30T03:13:36.478Z,21.76
2022-07-30T03:16:06.420Z,21.74
2022-07-30T03:18:37.131Z,21.72
2022-07-30T03:21:06.670Z,21.70
2022-07-30T03:23:37.674Z,21.66
2022-07-30T03:26:08.589Z,21.65
2022-07-30T03:28:41.798Z,21.58
2022-07-30T03:31:11.802Z,21.54
2022-07-30T03:33:41.446Z,21.55
2022-07-30T03:36:11.349Z,21.49
2022-07-30T03:38:40.906Z,21.48
2022-07-30T03:41:10.469Z,21.40
2022-07-30T03:43:42.931Z,21.37
2022-07-30T03:46:12.606Z,21.36
2022-07-30T03:48:42.134Z,21.35
2022-07-30T03:51:12.764Z,21.25
2022-07-30T03:53:42.854Z,21.25
2022-07-30T03:56:12.319Z,21.28
2022-07-30T03:58:44.300Z,21.29
2022-07-30T04:01:13.738Z,21.22
2022-07-30T04:03:43.203Z,21.18
2022-07-30T04:06:12.688Z,21.17
2022-07-30T04:08:42.136Z,21.19
2022-07-30T04:11:11.591Z,21.16
2022-07-30T04:13:41.020Z,21.13
2022-07-30T04:16:39.549Z,21.16
2022-07-30T04:19:04.835Z,21.14
2022-07-30T04:21:34.299Z,21.07
2022-07-30T04:24:05.589Z,20.96
2022-07-30T04:26:36.837Z,20.98
2022-07-30T04:29:07.194Z,20.97
2022-07-30T04:31:40.851Z,20.85
2022-07-30T04:34:10.964Z,20.90
2022-07-30T04:36:40.402Z,20.96
2022-07-30T04:39:10.082Z,20.99
2022-07-30T04:41:49.515Z,21.01
2022-07-30T04:44:20.321Z,21.03
2022-07-30T04:46:52.417Z,21.12
2022-07-30T04:49:21.997Z,21.17
2022-07-30T04:51:51.561Z,21.20
2022-07-30T04:54:21.013Z,21.28
2022-07-30T04:56:53.740Z,21.37
2022-07-30T04:59:24.282Z,21.46
2022-07-30T05:01:56.415Z,21.56
2022-07-30T05:04:25.998Z,21.63
2022-07-30T05:06:55.488Z,21.70
2022-07-30T05:09:25.063Z,21.83
2022-07-30T05:11:54.873Z,21.89
2022-07-30T05:14:24.402Z,21.84
2022-07-30T05:16:56.577Z,21.86
2022-07-30T05:19:26.236Z,21.79
2022-07-30T05:21:56.207Z,21.79
2022-07-30T05:24:25.690Z,21.93
2022-07-30T05:26:55.202Z,22.15
2022-07-30T05:29:24.632Z,22.35
2022-07-30T05:31:56.681Z,22.52
2022-07-30T05:34:32.177Z,22.30
2022-07-30T05:37:01.979Z,22.22
2022-07-30T05:39:31.777Z,22.46
2022-07-30T05:42:02.059Z,22.63
2022-07-30T05:44:31.512Z,22.72
2022-07-30T05:47:03.714Z,22.87
2022-07-30T05:49:33.277Z,23.02
2022-07-30T05:52:02.721Z,22.81
2022-07-30T05:54:35.710Z,22.95
2022-07-30T05:57:05.525Z,23.09
2022-07-30T05:59:35.175Z,23.29
2022-07-30T06:02:07.625Z,23.41
2022-07-30T06:04:37.603Z,23.27
2022-07-30T06:07:15.779Z,23.52
2022-07-30T06:09:45.384Z,23.68
2022-07-30T06:12:15.042Z,23.87
2022-07-30T06:14:44.536Z,23.70
2022-07-30T06:17:16.556Z,23.80
2022-07-30T06:19:46.042Z,24.09
2022-07-30T06:22:15.496Z,24.29
2022-07-30T06:24:44.907Z,24.43
2022-07-30T06:27:14.342Z,24.54
2022-07-30T06:29:43.891Z,24.67
2022-07-30T06:32:15.899Z,24.90
2022-07-30T06:34:45.321Z,25.08
2022-07-30T06:37:14.778Z,25.16
2022-07-30T06:39:57.585Z,25.16
2022-07-30T06:42:29.015Z,25.36
2022-07-30T06:44:58.459Z,25.47
2022-07-30T06:47:31.420Z,25.67
2022-07-30T06:50:00.872Z,25.76
2022-07-30T06:52:30.303Z,25.89
2022-07-30T06:54:59.725Z,26.04
2022-07-30T06:57:29.173Z,26.21
2022-07-30T07:00:00.069Z,26.28
2022-07-30T07:02:32.101Z,26.40
2022-07-30T07:05:01.926Z,26.60
2022-07-30T07:07:41.214Z,26.75
2022-07-30T07:10:11.537Z,26.95
2022-07-30T07:12:41.600Z,27.07
2022-07-30T07:15:12.464Z,27.19
2022-07-30T07:17:44.557Z,27.29
2022-07-30T07:20:14.582Z,27.35
2022-07-30T07:22:44.013Z,27.34
2022-07-30T07:25:14.587Z,27.36
2022-07-30T07:27:44.128Z,27.17
2022-07-30T07:30:33.561Z,27.08
2022-07-30T07:33:05.610Z,27.05
2022-07-30T07:35:48.440Z,26.97
2022-07-30T07:38:18.870Z,26.97
2022-07-30T07:40:48.435Z,26.88
2022-07-30T07:43:18.167Z,26.97
2022-07-30T07:45:47.942Z,26.99
2022-07-30T07:48:20.468Z,26.93
2022-07-30T07:50:49.901Z,26.97
2022-07-30T07:53:19.352Z,27.01
2022-07-30T07:55:48.773Z,27.09
2022-07-30T07:58:26.269Z,27.13
2022-07-30T08:00:56.110Z,27.30
2022-07-30T08:03:28.499Z,27.46
2022-07-30T08:06:04.743Z,27.35
2022-07-30T08:08:37.115Z,27.13
2022-07-30T08:11:07.897Z,27.01
2022-07-30T08:13:49.243Z,26.83
2022-07-30T08:16:22.325Z,27.10
2022-07-30T08:18:54.413Z,27.08
2022-07-30T08:21:23.850Z,27.05
2022-07-30T08:23:53.325Z,27.00
2022-07-30T08:26:22.808Z,27.19
2022-07-30T08:28:54.377Z,27.33
2022-07-30T08:31:24.127Z,27.80
2022-07-30T08:33:56.153Z,28.14
2022-07-30T08:36:26.054Z,28.56
2022-07-30T08:38:55.607Z,28.95
2022-07-30T08:41:25.049Z,29.27
2022-07-30T08:43:54.516Z,29.61
2022-07-30T08:46:25.294Z,29.94
2022-07-30T08:48:57.161Z,29.79
2022-07-30T08:51:26.741Z,29.50
2022-07-30T08:53:56.436Z,29.22
2022-07-30T08:56:25.949Z,29.04
2022-07-30T08:58:55.413Z,29.48
2022-07-30T09:01:24.995Z,29.71
2022-07-30T09:03:57.050Z,29.77
2022-07-30T09:06:26.655Z,29.67
2022-07-30T09:08:56.156Z,29.50
2022-07-30T09:11:25.572Z,30.20
2022-07-30T09:13:55.040Z,31.02
2022-07-30T09:16:25.097Z,31.82
2022-07-30T09:18:57.163Z,32.99
2022-07-30T09:21:28.440Z,34.51
2022-07-30T09:23:59.067Z,36.07
2022-07-30T09:26:29.210Z,35.97
2022-07-30T09:28:58.793Z,37.87
2022-07-30T09:34:29.452Z,41.59
2022-07-30T09:36:59.480Z,42.38
2022-07-30T09:39:32.937Z,43.07
2022-07-30T09:42:02.867Z,40.61
2022-07-30T09:44:32.998Z,40.69
2022-07-30T09:47:03.055Z,42.46
2022-07-30T09:49:35.392Z,41.37
2022-07-30T09:52:04.817Z,39.84
2022-07-30T09:54:51.432Z,42.39
2022-07-30T09:57:25.656Z,44.55
2022-07-30T09:59:57.414Z,46.49
2022-07-30T10:02:33.728Z,46.80
2022-07-30T10:05:16.387Z,48.04
2022-07-30T10:07:53.070Z,49.34
2022-07-30T10:10:25.251Z,50.29
2022-07-30T10:12:56.746Z,51.33
2022-07-30T10:15:27.660Z,52.18
2022-07-30T10:17:57.155Z,52.75
2022-07-30T10:20:29.393Z,52.79
2022-07-30T10:22:59.365Z,52.94
2022-07-30T10:25:29.242Z,52.75
2022-07-30T10:27:58.898Z,53.04
2022-07-30T10:30:32.327Z,52.79
2022-07-30T10:33:02.879Z,53.00
2022-07-30T10:35:38.381Z,52.72
2022-07-30T10:38:13.762Z,52.42
2022-07-30T10:40:46.070Z,51.44
2022-07-30T10:43:49.018Z,50.45
2022-07-30T10:46:22.994Z,49.01
2022-07-30T10:48:52.739Z,46.54
2022-07-30T10:51:25.428Z,43.72
2022-07-30T10:54:04.089Z,41.59
2022-07-30T10:56:33.545Z,40.12
2022-07-30T10:59:04.156Z,39.00
2022-07-30T11:02:06.892Z,38.16
2022-07-30T11:04:36.625Z,36.96
2022-07-30T11:07:33.479Z,36.22
2022-07-30T11:10:08.716Z,35.79
2022-07-30T11:12:54.467Z,35.25
2022-07-30T11:15:24.401Z,34.98
2022-07-30T11:18:01.616Z,34.61
2022-07-30T11:20:31.090Z,34.41
2022-07-30T11:23:14.491Z,34.15
2022-07-30T11:25:51.754Z,34.00
2022-07-30T11:28:49.378Z,33.92
2022-07-30T11:31:54.874Z,33.81
2022-07-30T11:34:30.658Z,33.73
2022-07-30T11:37:19.111Z,33.57
2022-07-30T11:40:13.477Z,33.74
2022-07-30T11:42:44.705Z,33.92
2022-07-30T11:45:30.920Z,34.14
2022-07-30T11:48:00.947Z,34.39
2022-07-30T11:50:32.093Z,34.35
2022-07-30T11:53:04.314Z,34.25
2022-07-30T11:55:37.334Z,34.20
2022-07-30T11:58:07.871Z,34.28
2022-07-30T12:00:37.743Z,34.42
2022-07-30T12:03:13.928Z,34.25
2022-07-30T12:05:43.594Z,34.23
2022-07-30T12:08:34.078Z,34.31
2022-07-30T12:11:05.928Z,34.49
2022-07-30T12:13:44.107Z,34.44
2022-07-30T12:16:16.604Z,34.23
2022-07-30T12:18:46.387Z,34.23
2022-07-30T12:21:16.323Z,34.20
2022-07-30T12:23:46.062Z,34.39
2022-07-30T12:26:26.721Z,34.45
2022-07-30T12:28:56.580Z,34.52
2022-07-30T12:31:26.031Z,34.13
2022-07-30T12:33:58.359Z,34.01
2022-07-30T12:36:30.935Z,34.11
2022-07-30T12:39:00.839Z,34.22
2022-07-30T12:41:46.218Z,34.28
2022-07-30T12:44:36.554Z,34.29
2022-07-30T12:47:06.705Z,34.23
2022-07-30T12:49:48.828Z,33.98
2022-07-30T12:52:27.919Z,34.04
2022-07-30T12:55:06.643Z,34.10
2022-07-30T12:58:05.474Z,34.09
2022-07-30T13:00:52.201Z,34.17
2022-07-30T13:03:26.179Z,34.21
2022-07-30T13:05:56.289Z,34.22
2022-07-30T13:08:56.000Z,34.47
2022-07-30T13:11:26.431Z,34.79
2022-07-30T13:13:58.190Z,34.74
2022-07-30T13:16:27.617Z,34.64
2022-07-30T13:18:57.036Z,34.59
2022-07-30T13:21:26.576Z,34.39
2022-07-30T13:23:56.005Z,34.37
2022-07-30T13:26:25.551Z,34.54
2022-07-30T13:28:57.610Z,34.78
2022-07-30T13:31:42.996Z,34.89
2022-07-30T13:34:12.769Z,34.72
2022-07-30T13:36:43.040Z,34.57
2022-07-30T13:39:12.610Z,34.45
2022-07-30T13:41:42.119Z,34.29
2022-07-30T13:44:11.693Z,34.41
2022-07-30T13:46:43.965Z,34.37
2022-07-30T13:49:13.468Z,34.47
2022-07-30T13:51:43.015Z,34.72
2022-07-30T13:54:13.971Z,34.72
2022-07-30T13:56:43.468Z,34.77
2022-07-30T13:59:12.904Z,34.48
2022-07-30T14:01:45.053Z,34.34
2022-07-30T14:04:14.592Z,34.47
2022-07-30T14:06:44.187Z,34.41
2022-07-30T14:09:13.620Z,34.26
2022-07-30T14:11:43.065Z,34.38
2022-07-30T14:14:13.007Z,34.45
2022-07-30T14:16:46.656Z,34.44
2022-07-30T14:19:23.139Z,34.43
2022-07-30T14:21:53.853Z,34.43
2022-07-30T14:24:23.352Z,34.16
2022-07-30T14:26:57.692Z,34.13
2022-07-30T14:29:28.785Z,34.41
2022-07-30T14:32:00.813Z,34.68
2022-07-30T14:34:30.253Z,34.70
2022-07-30T14:36:59.831Z,34.61
2022-07-30T14:39:30.020Z,34.48
2022-07-30T14:41:59.505Z,34.46
2022-07-30T14:44:28.949Z,34.35
2022-07-30T14:47:00.966Z,34.45
2022-07-30T14:49:30.736Z,34.46
2022-07-30T14:52:00.921Z,34.47
2022-07-30T14:54:31.363Z,34.45
2022-07-30T14:57:00.891Z,34.55
2022-07-30T14:59:30.632Z,34.75
2022-07-30T15:02:02.883Z,34.67
2022-07-30T15:04:32.460Z,34.61
2022-07-30T15:07:02.108Z,34.61
2022-07-30T15:09:31.552Z,34.63
2022-07-30T15:12:18.008Z,34.61
2022-07-30T15:14:50.405Z,34.58
2022-07-30T15:17:24.447Z,34.38
2022-07-30T15:19:53.889Z,34.24
2022-07-30T15:22:23.331Z,34.32
2022-07-30T15:24:52.786Z,34.41
2022-07-30T15:27:33.223Z,34.61
2022-07-30T15:30:03.301Z,34.71
2022-07-30T15:32:38.083Z,34.62
2022-07-30T15:35:13.429Z,34.28
2022-07-30T15:37:43.784Z,34.25
2022-07-30T15:40:13.504Z,34.06
2022-07-30T15:42:43.161Z,34.19
2022-07-30T15:45:17.775Z,34.26
2022-07-30T15:47:50.206Z,34.19
2022-07-30T15:50:19.895Z,34.42
2022-07-30T15:52:49.362Z,34.49
2022-07-30T15:55:19.204Z,34.37
2022-07-30T15:57:48.693Z,34.48
2022-07-30T16:00:18.416Z,34.35
2022-07-30T16:02:50.568Z,34.25
2022-07-30T16:05:20.014Z,34.04
2022-07-30T16:07:49.442Z,34.02
2022-07-30T16:10:18.911Z,33.89
2022-07-30T16:12:48.328Z,33.69
2022-07-30T16:15:17.744Z,33.54
2022-07-30T16:17:49.759Z,33.53
2022-07-30T16:20:19.169Z,33.49
2022-07-30T16:22:48.624Z,33.55
2022-07-30T16:25:18.075Z,33.53
2022-07-30T16:27:47.510Z,33.50
2022-07-30T16:30:16.940Z,33.30
2022-07-30T16:32:46.398Z,33.28
2022-07-30T16:35:18.496Z,33.27
2022-07-30T16:37:47.918Z,33.25
2022-07-30T16:40:17.385Z,33.16
2022-07-30T16:42:46.907Z,33.14
2022-07-30T16:45:17.604Z,32.95
2022-07-30T16:47:48.496Z,32.68
2022-07-30T16:50:20.520Z,32.66
2022-07-30T16:52:49.958Z,32.59
2022-07-30T16:55:19.486Z,32.84
2022-07-30T16:57:48.906Z,32.76
2022-07-30T17:00:18.883Z,32.73
2022-07-30T17:02:48.308Z,32.74
2022-07-30T17:05:20.458Z,32.61
2022-07-30T17:07:49.909Z,32.57
2022-07-30T17:10:25.491Z,32.53
2022-07-30T17:12:57.215Z,32.53
2022-07-30T17:15:31.929Z,32.58
2022-07-30T17:18:02.455Z,32.55
2022-07-30T17:20:34.528Z,32.46
2022-07-30T17:23:03.959Z,32.37
2022-07-30T17:25:33.464Z,32.32
2022-07-30T17:28:02.895Z,32.01
2022-07-30T17:30:32.429Z,31.87
2022-07-30T17:33:02.017Z,31.81
2022-07-30T17:35:34.280Z,31.79
2022-07-30T17:38:03.792Z,31.71
2022-07-30T17:40:33.348Z,31.50
2022-07-30T17:43:07.457Z,31.45
2022-07-30T17:45:37.816Z,31.34
2022-07-30T17:48:08.165Z,31.13
2022-07-30T17:50:40.188Z,30.99
2022-07-30T17:53:09.826Z,30.87
2022-07-30T17:55:39.274Z,30.78
2022-07-30T17:58:08.743Z,30.71
2022-07-30T18:00:38.205Z,30.72
2022-07-30T18:03:07.670Z,30.57
2022-07-30T18:05:39.775Z,30.52
2022-07-30T18:08:09.219Z,30.53
2022-07-30T18:10:38.671Z,30.53
2022-07-30T18:13:25.940Z,30.37
2022-07-30T18:15:56.744Z,30.27
2022-07-30T18:18:26.232Z,30.22
2022-07-30T18:20:58.243Z,30.25
2022-07-30T18:23:32.445Z,30.33
2022-07-30T18:26:04.363Z,30.30
2022-07-30T18:28:33.970Z,30.31
2022-07-30T18:31:03.418Z,30.27
2022-07-30T18:33:32.852Z,30.21
2022-07-30T18:36:05.026Z,30.21
2022-07-30T18:38:34.441Z,30.22
2022-07-30T18:41:04.000Z,30.15
2022-07-30T18:43:47.823Z,30.12
2022-07-30T18:46:18.004Z,30.04
2022-07-30T18:48:48.556Z,30.00
2022-07-30T18:51:25.068Z,29.92
2022-07-30T18:53:54.912Z,29.82
2022-07-30T18:56:24.357Z,29.67
2022-07-30T18:58:53.786Z,29.55
2022-07-30T19:01:24.289Z,29.46
2022-07-30T19:03:53.849Z,29.43
2022-07-30T19:06:25.941Z,29.37
2022-07-30T19:08:55.391Z,29.32
2022-07-30T19:11:24.867Z,29.37
2022-07-30T19:13:54.295Z,29.37
2022-07-30T19:16:24.052Z,29.32
2022-07-30T19:18:53.513Z,29.24
2022-07-30T19:21:25.628Z,29.25
2022-07-30T19:23:55.063Z,29.20
2022-07-30T19:26:24.623Z,29.10
2022-07-30T19:28:54.186Z,29.04
2022-07-30T19:31:23.631Z,28.98
2022-07-30T19:33:53.067Z,28.93
2022-07-30T19:36:25.220Z,28.89
2022-07-30T19:38:58.328Z,28.78
2022-07-30T19:41:27.925Z,28.81
2022-07-30T19:44:00.305Z,28.80
2022-07-30T19:46:29.746Z,28.79
2022-07-30T19:48:59.420Z,28.79
2022-07-30T19:52:09.767Z,28.82
2022-07-30T19:54:21.713Z,28.78
2022-07-30T19:56:51.242Z,28.80
2022-07-30T19:59:57.878Z,28.76
2022-07-30T20:02:10.585Z,28.77
2022-07-30T20:04:43.595Z,28.72
2022-07-30T20:07:15.897Z,28.68
2022-07-30T20:09:45.335Z,28.56
2022-07-30T20:12:18.075Z,28.46
2022-07-30T20:14:47.514Z,28.44
2022-07-30T20:17:18.465Z,28.39
2022-07-30T20:19:48.711Z,28.45
2022-07-30T20:22:20.782Z,28.40
2022-07-30T20:24:50.985Z,28.36
2022-07-30T20:27:35.702Z,28.29
2022-07-30T20:30:06.735Z,28.29
2022-07-30T20:32:36.548Z,28.26
2022-07-30T20:35:06.067Z,28.28
2022-07-30T20:37:40.212Z,28.24
2022-07-30T20:40:24.657Z,28.15
2022-07-30T20:42:56.351Z,28.15
2022-07-30T20:45:40.199Z,27.97
2022-07-30T20:48:17.365Z,28.04
2022-07-30T20:50:55.148Z,27.93
2022-07-30T20:53:33.693Z,27.92
2022-07-30T20:56:09.128Z,27.92
2022-07-30T20:58:40.180Z,27.87
2022-07-30T21:01:15.737Z,27.86
2022-07-30T21:03:47.694Z,27.92
2022-07-30T21:06:28.554Z,27.89
2022-07-30T21:09:24.118Z,27.78
2022-07-30T21:11:56.496Z,27.75
2022-07-30T21:14:25.992Z,27.77
2022-07-30T21:16:56.250Z,27.76
2022-07-30T21:19:25.810Z,27.67
2022-07-30T21:21:58.527Z,27.48
2022-07-30T21:24:30.540Z,27.48
2022-07-30T21:27:00.006Z,27.49
2022-07-30T21:29:30.181Z,27.56
2022-07-30T21:32:01.571Z,27.54
2022-07-30T21:34:40.296Z,27.31
2022-07-30T21:37:13.008Z,27.35
2022-07-30T21:39:47.608Z,27.25
2022-07-30T21:42:17.046Z,27.40
2022-07-30T21:44:55.589Z,27.43
2022-07-30T21:47:25.101Z,27.52
2022-07-30T21:49:55.545Z,27.49
2022-07-30T21:52:25.333Z,26.99
2022-07-30T21:54:57.396Z,27.04
2022-07-30T21:57:34.561Z,27.14
2022-07-30T22:00:06.071Z,27.14
2022-07-30T22:02:38.547Z,27.12
2022-07-30T22:05:38.831Z,27.08
2022-07-30T22:08:08.679Z,27.08
2022-07-30T22:10:42.637Z,27.01
2022-07-30T22:13:12.131Z,26.92
2022-07-30T22:15:42.584Z,27.13
2022-07-30T22:18:12.048Z,27.20
2022-07-30T22:20:41.685Z,27.24
2022-07-30T22:23:11.773Z,27.25
2022-07-30T22:25:45.005Z,27.17
2022-07-30T22:28:14.849Z,27.22
2022-07-30T22:30:46.192Z,27.22
2022-07-30T22:33:17.209Z,27.22
2022-07-30T22:35:49.797Z,27.22
2022-07-30T22:38:19.864Z,27.19
2022-07-30T22:40:51.965Z,27.16
2022-07-30T22:43:21.477Z,27.14
2022-07-30T22:45:51.085Z,27.18
2022-07-30T22:48:26.914Z,27.11
2022-07-30T22:50:58.834Z,27.16
2022-07-30T22:54:03.532Z,27.12
2022-07-30T22:56:24.016Z,27.02
2022-07-30T22:58:53.603Z,27.09
2022-07-30T23:01:23.520Z,27.09
2022-07-30T23:03:52.944Z,27.07
2022-07-30T23:06:23.368Z,27.05
2022-07-30T23:08:53.107Z,27.04
2022-07-30T23:11:25.156Z,27.02
2022-07-30T23:14:06.601Z,27.05
2022-07-30T23:16:36.031Z,27.04
2022-07-30T23:19:05.592Z,27.03
2022-07-30T23:21:35.144Z,27.00
2022-07-30T23:24:04.817Z,26.98
2022-07-30T23:26:36.823Z,26.95
2022-07-30T23:29:06.260Z,26.99
2022-07-30T23:31:42.903Z,26.97
2022-07-30T23:34:13.025Z,26.91
2022-07-30T23:36:42.592Z,26.84
2022-07-30T23:39:12.160Z,26.82
2022-07-30T23:41:44.198Z,26.72
2022-07-30T23:44:13.645Z,26.71
2022-07-30T23:46:43.102Z,26.66
2022-07-30T23:49:12.853Z,26.64
2022-07-30T23:51:42.292Z,26.61
2022-07-30T23:54:11.729Z,26.55
2022-07-30T23:56:44.544Z,26.57
2022-07-30T23:59:15.272Z,26.59
